Observation data for Tulia on 01/20/2019      Previous  Date  Next       Current Mesonet Observations  Soil Data  Daily Summary Page  Observations in Plain Language
KTIS 200600Z 17008KT M02/M06 A3026 RMK A01 T10161060  RH  072%=      5-min Rain = 0
KTIS 200605Z 17008KT M02/M06 A3026 RMK A01 T10161060  RH  072%=      5-min Rain = 0
KTIS 200610Z 16007KT M02/M06 A3027 RMK A01 T10181060  RH  073%=      5-min Rain = 0
KTIS 200615Z 16007KT M02/M06 A3027 RMK A01 T10201060  RH  074%=      5-min Rain = 0
KTIS 200620Z 17008KT M02/M06 A3026 RMK A01 T10201059  RH  074%=      5-min Rain = 0
KTIS 200625Z 17008KT M02/M06 A3027 RMK A01 T10211062  RH  074%=      5-min Rain = 0
KTIS 200630Z 17009KT M02/M06 A3026 RMK A01 T10221060  RH  075%=      5-min Rain = 0
KTIS 200635Z 17009KT M02/M06 A3025 RMK A01 T10211060  RH  075%=      5-min Rain = 0
KTIS 200640Z 18009KT M02/M06 A3026 RMK A01 T10231061  RH  075%=      5-min Rain = 0
KTIS 200645Z 17010KT M03/M06 A3026 RMK A01 T10261061  RH  077%=      5-min Rain = 0
KTIS 200650Z 17010KT M02/M06 A3026 RMK A01 T10211058  RH  076%=      5-min Rain = 0
KTIS 200655Z 17011KT M02/M06 A3026 RMK A01 T10191058  RH  075%=      5-min Rain = 0
KTIS 200700Z 17010KT M02/M06 A3026 RMK A01 T10221059  RH  076%=      5-min Rain = 0
KTIS 200705Z 18010KT M02/M06 A3026 RMK A01 T10241061  RH  076%=      5-min Rain = 0
KTIS 200710Z 18010KT M03/M06 A3026 RMK A01 T10261061  RH  077%=      5-min Rain = 0
KTIS 200715Z 18010KT M03/M06 A3027 RMK A01 T10271062  RH  077%=      5-min Rain = 0
KTIS 200720Z 18010KT M03/M06 A3026 RMK A01 T10271061  RH  077%=      5-min Rain = 0
KTIS 200725Z 18009KT M03/M06 A3026 RMK A01 T10261061  RH  077%=      5-min Rain = 0
KTIS 200730Z 17009KT M03/M06 A3026 RMK A01 T10271060  RH  078%=      5-min Rain = 0
KTIS 200735Z 18009KT M03/M06 A3026 RMK A01 T10281061  RH  078%=      5-min Rain = 0
KTIS 200740Z 18010KT M03/M06 A3026 RMK A01 T10281060  RH  078%=      5-min Rain = 0
KTIS 200745Z 18009KT M03/M06 A3026 RMK A01 T10301062  RH  079%=      5-min Rain = 0
KTIS 200750Z 18009KT M03/M06 A3026 RMK A01 T10301062  RH  079%=      5-min Rain = 0
KTIS 200755Z 18008KT M03/M06 A3026 RMK A01 T10311062  RH  079%=      5-min Rain = 0
KTIS 200800Z 17008KT M03/M06 A3026 RMK A01 T10311061  RH  080%=      5-min Rain = 0
KTIS 200805Z 17007KT M03/M06 A3026 RMK A01 T10301060  RH  080%=      5-min Rain = 0
KTIS 200810Z 18007KT M03/M06 A3026 RMK A01 T10311062  RH  079%=      5-min Rain = 0
KTIS 200815Z 18008KT M03/M06 A3026 RMK A01 T10341063  RH  080%=      5-min Rain = 0
KTIS 200820Z 19008KT M03/M06 A3026 RMK A01 T10331063  RH  080%=      5-min Rain = 0
KTIS 200825Z 19008KT M03/M06 A3026 RMK A01 T10341064  RH  080%=      5-min Rain = 0
KTIS 200830Z 18008KT M03/M06 A3026 RMK A01 T10341064  RH  080%=      5-min Rain = 0
KTIS 200835Z 19009KT M04/M06 A3026 RMK A01 T10351064  RH  080%=      5-min Rain = 0
KTIS 200840Z 19008KT M04/M07 A3026 RMK A01 T10361066  RH  080%=      5-min Rain = 0
KTIS 200845Z 20008KT M04/M07 A3026 RMK A01 T10401068  RH  081%=      5-min Rain = 0
KTIS 200850Z 20008KT M04/M07 A3026 RMK A01 T10411068  RH  081%=      5-min Rain = 0
KTIS 200855Z 20007KT M04/M07 A3026 RMK A01 T10391066  RH  081%=      5-min Rain = 0
KTIS 200900Z 20008KT M04/M07 A3026 RMK A01 T10381067  RH  080%=      5-min Rain = 0
KTIS 200905Z 19008KT M04/M07 A3026 RMK A01 T10411068  RH  081%=      5-min Rain = 0
KTIS 200910Z 20008KT M04/M07 A3026 RMK A01 T10411068  RH  082%=      5-min Rain = 0
KTIS 200915Z 19009KT M04/M07 A3026 RMK A01 T10381066  RH  081%=      5-min Rain = 0
KTIS 200920Z 19008KT M04/M07 A3026 RMK A01 T10371066  RH  080%=      5-min Rain = 0
KTIS 200925Z 19008KT M04/M07 A3026 RMK A01 T10381066  RH  081%=      5-min Rain = 0
KTIS 200930Z 19008KT M04/M07 A3026 RMK A01 T10381066  RH  081%=      5-min Rain = 0
KTIS 200935Z 19008KT M04/M07 A3026 RMK A01 T10381066  RH  081%=      5-min Rain = 0
KTIS 200940Z 19008KT M04/M07 A3026 RMK A01 T10381065  RH  081%=      5-min Rain = 0
KTIS 200945Z 19008KT M04/M07 A3026 RMK A01 T10381065  RH  082%=      5-min Rain = 0
KTIS 200950Z 19007KT M04/M07 A3026 RMK A01 T10391066  RH  082%=      5-min Rain = 0
KTIS 200955Z 19006KT M04/M07 A3026 RMK A01 T10411067  RH  082%=      5-min Rain = 0
KTIS 201000Z 18005KT M04/M07 A3025 RMK A01 T10431068  RH  083%=      5-min Rain = 0
KTIS 201005Z 17006KT M04/M07 A3025 RMK A01 T10431067  RH  084%=      5-min Rain = 0
KTIS 201010Z 17006KT M04/M07 A3025 RMK A01 T10431067  RH  084%=      5-min Rain = 0
KTIS 201015Z 17006KT M05/M07 A3025 RMK A01 T10451067  RH  085%=      5-min Rain = 0
KTIS 201020Z 17006KT M05/M07 A3025 RMK A01 T10451067  RH  085%=      5-min Rain = 0
KTIS 201025Z 18006KT M04/M07 A3025 RMK A01 T10431065  RH  084%=      5-min Rain = 0
KTIS 201030Z 17006KT M04/M07 A3025 RMK A01 T10431067  RH  083%=      5-min Rain = 0
KTIS 201035Z 17006KT M04/M07 A3025 RMK A01 T10441068  RH  083%=      5-min Rain = 0
KTIS 201040Z 18007KT M05/M07 A3024 RMK A01 T10461069  RH  084%=      5-min Rain = 0
KTIS 201045Z 18007KT M05/M07 A3024 RMK A01 T10461069  RH  084%=      5-min Rain = 0
KTIS 201050Z 19007KT M05/M07 A3024 RMK A01 T10451068  RH  084%=      5-min Rain = 0
KTIS 201055Z 19007KT M04/M07 A3024 RMK A01 T10441068  RH  083%=      5-min Rain = 0
KTIS 201100Z 19007KT M04/M07 A3024 RMK A01 T10431068  RH  083%=      5-min Rain = 0
KTIS 201105Z 19007KT M04/M07 A3024 RMK A01 T10421069  RH  082%=      5-min Rain = 0
KTIS 201110Z 19007KT M04/M07 A3024 RMK A01 T10421069  RH  081%=      5-min Rain = 0
KTIS 201115Z 19008KT M04/M07 A3023 RMK A01 T10421070  RH  081%=      5-min Rain = 0
KTIS 201120Z 19007KT M04/M07 A3023 RMK A01 T10421070  RH  081%=      5-min Rain = 0
KTIS 201125Z 19007KT M04/M07 A3022 RMK A01 T10421071  RH  080%=      5-min Rain = 0
KTIS 201130Z 18006KT M04/M07 A3022 RMK A01 T10431072  RH  080%=      5-min Rain = 0
KTIS 201135Z 19007KT M04/M07 A3022 RMK A01 T10441073  RH  080%=      5-min Rain = 0
KTIS 201140Z 19007KT M04/M07 A3022 RMK A01 T10431073  RH  079%=      5-min Rain = 0
KTIS 201145Z 19008KT M04/M07 A3021 RMK A01 T10431074  RH  079%=      5-min Rain = 0
KTIS 201150Z 19008KT M04/M07 A3021 RMK A01 T10421074  RH  078%=      5-min Rain = 0
KTIS 201155Z 19008KT M04/M07 A3021 RMK A01 T10421074  RH  078%=      5-min Rain = 0
KTIS 201200Z 19007KT M04/M08 A3021 RMK A01 T10441075  RH  079%=      5-min Rain = 0
KTIS 201205Z 19007KT M04/M08 A3021 RMK A01 T10441075  RH  079%=      5-min Rain = 0
KTIS 201210Z 19009KT M04/M07 A3021 RMK A01 T10431074  RH  079%=      5-min Rain = 0
KTIS 201215Z 20008KT M04/M08 A3021 RMK A01 T10441075  RH  079%=      5-min Rain = 0
KTIS 201220Z 20008KT M05/M08 A3021 RMK A01 T10461076  RH  080%=      5-min Rain = 0
KTIS 201225Z 20008KT M05/M08 A3021 RMK A01 T10451076  RH  079%=      5-min Rain = 0
KTIS 201230Z 20008KT M04/M08 A3021 RMK A01 T10431077  RH  078%=      5-min Rain = 0
KTIS 201235Z 20009KT M04/M08 A3021 RMK A01 T10431077  RH  077%=      5-min Rain = 0
KTIS 201240Z 20009KT M04/M08 A3021 RMK A01 T10421077  RH  076%=      5-min Rain = 0
KTIS 201245Z 20008KT M04/M08 A3021 RMK A01 T10411077  RH  076%=      5-min Rain = 0
KTIS 201250Z 20009KT M04/M08 A3021 RMK A01 T10411077  RH  076%=      5-min Rain = 0
KTIS 201255Z 20008KT M04/M08 A3021 RMK A01 T10411077  RH  076%=      5-min Rain = 0
KTIS 201300Z 21008KT M04/M08 A3021 RMK A01 T10411077  RH  076%=      5-min Rain = 0
KTIS 201305Z 21008KT M04/M08 A3021 RMK A01 T10411076  RH  077%=      5-min Rain = 0
KTIS 201310Z 21008KT M04/M08 A3021 RMK A01 T10411076  RH  076%=      5-min Rain = 0
KTIS 201315Z 20008KT M04/M08 A3021 RMK A01 T10411075  RH  077%=      5-min Rain = 0
KTIS 201320Z 20008KT M04/M08 A3021 RMK A01 T10401075  RH  077%=      5-min Rain = 0
KTIS 201325Z 20009KT M04/M07 A3021 RMK A01 T10401074  RH  077%=      5-min Rain = 0
KTIS 201330Z 20009KT M04/M07 A3021 RMK A01 T10391073  RH  078%=      5-min Rain = 0
KTIS 201335Z 20008KT M04/M07 A3021 RMK A01 T10401073  RH  078%=      5-min Rain = 0
KTIS 201340Z 20007KT M04/M07 A3021 RMK A01 T10421073  RH  079%=      5-min Rain = 0
KTIS 201345Z 20007KT M04/M07 A3021 RMK A01 T10431072  RH  080%=      5-min Rain = 0
KTIS 201350Z 20007KT M04/M07 A3021 RMK A01 T10411071  RH  079%=      5-min Rain = 0
KTIS 201355Z 20007KT M04/M07 A3021 RMK A01 T10401071  RH  079%=      5-min Rain = 0
KTIS 201400Z 20007KT M04/M07 A3022 RMK A01 T10411070  RH  080%=      5-min Rain = 0
KTIS 201405Z 20007KT M04/M07 A3022 RMK A01 T10391069  RH  080%=      5-min Rain = 0
KTIS 201410Z 20006KT M04/M07 A3022 RMK A01 T10381068  RH  080%=      5-min Rain = 0
KTIS 201415Z 19006KT M04/M07 A3022 RMK A01 T10391068  RH  080%=      5-min Rain = 0
KTIS 201420Z 20006KT M04/M07 A3022 RMK A01 T10391068  RH  081%=      5-min Rain = 0
KTIS 201425Z 20006KT M04/M07 A3022 RMK A01 T10381066  RH  081%=      5-min Rain = 0
KTIS 201430Z 20006KT M04/M07 A3022 RMK A01 T10351065  RH  080%=      5-min Rain = 0
KTIS 201435Z 20007KT M03/M06 A3022 RMK A01 T10331063  RH  080%=      5-min Rain = 0
KTIS 201440Z 21007KT M03/M06 A3022 RMK A01 T10311061  RH  080%=      5-min Rain = 0
KTIS 201445Z 20007KT M03/M06 A3022 RMK A01 T10291060  RH  079%=      5-min Rain = 0
KTIS 201450Z 21009KT M03/M06 A3021 RMK A01 T10261057  RH  079%=      5-min Rain = 0
KTIS 201455Z 21010KT M02/M06 A3021 RMK A01 T10231056  RH  078%=      5-min Rain = 0
KTIS 201500Z 21010KT M02/M05 A3022 RMK A01 T10181053  RH  077%=      5-min Rain = 0
KTIS 201505Z 22011KT M01/M05 A3022 RMK A01 T10131051  RH  076%=      5-min Rain = 0
KTIS 201510Z 22011KT M01/M05 A3021 RMK A01 T10101049  RH  075%=      5-min Rain = 0
KTIS 201515Z 22012KT M01/M05 A3021 RMK A01 T10091048  RH  075%=      5-min Rain = 0
KTIS 201520Z 22013KT M01/M05 A3021 RMK A01 T10061047  RH  074%=      5-min Rain = 0
KTIS 201525Z 22011KT M01/M05 A3022 RMK A01 T10051046  RH  074%=      5-min Rain = 0
KTIS 201530Z 21010KT M00/M04 A3022 RMK A01 T10021044  RH  074%=      5-min Rain = 0
KTIS 201535Z 22010KT 00/M04 A3021 RMK A01 T00011043  RH  073%=      5-min Rain = 0
KTIS 201540Z 22011KT 00/M04 A3021 RMK A01 T00031042  RH  072%=      5-min Rain = 0
KTIS 201545Z 22011KT 01/M04 A3021 RMK A01 T00061041  RH  071%=      5-min Rain = 0
KTIS 201550Z 21012KT 01/M04 A3021 RMK A01 T00091040  RH  070%=      5-min Rain = 0
KTIS 201555Z 21012KT 01/M04 A302 RMK A01 T00121039  RH  069%=      5-min Rain = 0
KTIS 201600Z 21012KT 02/M04 A302 RMK A01 T00171037  RH  068%=      5-min Rain = 0
KTIS 201605Z 21013KT 02/M03 A302 RMK A01 T00221034  RH  066%=      5-min Rain = 0
KTIS 201610Z 21012KT 03/M03 A302 RMK A01 T00301031  RH  065%=      5-min Rain = 0
KTIS 201615Z 21015KT 04/M03 A302 RMK A01 T00391029  RH  062%=      5-min Rain = 0
KTIS 201620Z 20017KT 05/M03 A302 RMK A01 T00451029  RH  059%=      5-min Rain = 0
KTIS 201625Z 20016KT 04/M03 A302 RMK A01 T00441030  RH  059%=      5-min Rain = 0
KTIS 201630Z 21014G19KT 05/M03 A302 RMK A01 T00481028  RH  058%=      5-min Rain = 0
KTIS 201635Z 21014KT 05/M03 A3019 RMK A01 T00501028  RH  057%=      5-min Rain = 0
KTIS 201640Z 21018G24KT 05/M03 A3019 RMK A01 T00541029  RH  055%=      5-min Rain = 0
KTIS 201645Z 20019KT 05/M03 A3019 RMK A01 T00541032  RH  055%=      5-min Rain = 0
KTIS 201650Z 20018KT 06/M03 A3019 RMK A01 T00561030  RH  054%=      5-min Rain = 0
KTIS 201655Z 20017KT 06/M03 A3019 RMK A01 T00561030  RH  054%=      5-min Rain = 0
KTIS 201700Z 20016KT 06/M03 A3019 RMK A01 T00621027  RH  053%=      5-min Rain = 0
KTIS 201705Z 21018G23KT 06/M03 A3018 RMK A01 T00641029  RH  052%=      5-min Rain = 0
KTIS 201710Z 21017G22KT 07/M03 A3018 RMK A01 T00671028  RH  051%=      5-min Rain = 0
KTIS 201715Z 21016G21KT 07/M03 A3018 RMK A01 T00711027  RH  050%=      5-min Rain = 0
KTIS 201720Z 21016G21KT 07/M03 A3018 RMK A01 T00741028  RH  049%=      5-min Rain = 0
KTIS 201725Z 21016G21KT 07/M03 A3017 RMK A01 T00731029  RH  049%=      5-min Rain = 0
KTIS 201730Z 21016G22KT 07/M03 A3017 RMK A01 T00741029  RH  048%=      5-min Rain = 0
KTIS 201735Z 21017G22KT 08/M03 A3017 RMK A01 T00781029  RH  047%=      5-min Rain = 0
KTIS 201740Z 21015G20KT 08/M03 A3017 RMK A01 T00831028  RH  046%=      5-min Rain = 0
KTIS 201745Z 21016KT 08/M03 A3017 RMK A01 T00841029  RH  045%=      5-min Rain = 0
KTIS 201750Z 21015KT 09/M03 A3017 RMK A01 T00871027  RH  045%=      5-min Rain = 0
KTIS 201755Z 21014G19KT 09/M03 A3017 RMK A01 T00901027  RH  044%=      5-min Rain = 0
KTIS 201800Z 21016G21KT 09/M03 A3016 RMK A01 T00921028  RH  043%=      5-min Rain = 0
KTIS 201805Z 22015KT 10/M03 A3016 RMK A01 T00951030  RH  042%=      5-min Rain = 0
KTIS 201810Z 22016G21KT 10/M03 A3016 RMK A01 T00981030  RH  041%=      5-min Rain = 0
KTIS 201815Z 22015G20KT 10/M03 A3015 RMK A01 T01001030  RH  040%=      5-min Rain = 0
KTIS 201820Z 23017KT 11/M03 A3015 RMK A01 T01061031  RH  038%=      5-min Rain = 0
KTIS 201825Z 23017KT 11/M03 A3015 RMK A01 T01071032  RH  038%=      5-min Rain = 0
KTIS 201830Z 23016G21KT 11/M03 A3015 RMK A01 T01091031  RH  038%=      5-min Rain = 0
KTIS 201835Z 23015KT 11/M03 A3014 RMK A01 T01101031  RH  037%=      5-min Rain = 0
KTIS 201840Z 23015KT 11/M04 A3014 RMK A01 T01141036  RH  035%=      5-min Rain = 0
KTIS 201845Z 23014KT 12/M03 A3013 RMK A01 T01181032  RH  035%=      5-min Rain = 0
KTIS 201850Z 23015KT 12/M03 A3013 RMK A01 T01201031  RH  035%=      5-min Rain = 0
KTIS 201855Z 23016KT 12/M04 A3012 RMK A01 T01181035  RH  034%=      5-min Rain = 0
KTIS 201900Z 23015KT 12/M04 A3012 RMK A01 T01171035  RH  035%=      5-min Rain = 0
KTIS 201905Z 23015G20KT 12/M03 A3011 RMK A01 T01181034  RH  035%=      5-min Rain = 0
KTIS 201910Z 23013KT 12/M03 A3011 RMK A01 T01231032  RH  034%=      5-min Rain = 0
KTIS 201915Z 22014G20KT 13/M03 A3011 RMK A01 T01261030  RH  034%=      5-min Rain = 0
KTIS 201920Z 22016G21KT 13/M04 A301 RMK A01 T01281036  RH  032%=      5-min Rain = 0
KTIS 201925Z 23016G21KT 13/M03 A301 RMK A01 T01311033  RH  032%=      5-min Rain = 0
KTIS 201930Z 23015G21KT 13/M03 A301 RMK A01 T01321031  RH  032%=      5-min Rain = 0
KTIS 201935Z 22015KT 13/M03 A3009 RMK A01 T01341029  RH  032%=      5-min Rain = 0
KTIS 201940Z 22014KT 13/M03 A3009 RMK A01 T01341030  RH  032%=      5-min Rain = 0
KTIS 201945Z 23016KT 13/M03 A3009 RMK A01 T01321032  RH  032%=      5-min Rain = 0
KTIS 201950Z 23015G21KT 13/M03 A3009 RMK A01 T01311034  RH  032%=      5-min Rain = 0
KTIS 201955Z 22016KT 13/M04 A3009 RMK A01 T01271036  RH  032%=      5-min Rain = 0
KTIS 202000Z 23014KT 13/M04 A3008 RMK A01 T01271037  RH  032%=      5-min Rain = 0
KTIS 202005Z 23015KT 13/M04 A3008 RMK A01 T01301036  RH  032%=      5-min Rain = 0
KTIS 202010Z 22016KT 13/M04 A3008 RMK A01 T01321037  RH  031%=      5-min Rain = 0
KTIS 202015Z 23014G19KT 14/M04 A3007 RMK A01 T01361037  RH  030%=      5-min Rain = 0
KTIS 202020Z 24016KT 14/M04 A3007 RMK A01 T01391039  RH  029%=      5-min Rain = 0
KTIS 202025Z 23015KT 14/M04 A3007 RMK A01 T01381040  RH  029%=      5-min Rain = 0
KTIS 202030Z 23013KT 14/M04 A3006 RMK A01 T01401037  RH  029%=      5-min Rain = 0
KTIS 202035Z 24013G18KT 14/M04 A3006 RMK A01 T01441036  RH  029%=      5-min Rain = 0
KTIS 202040Z 23014G19KT 15/M04 A3006 RMK A01 T01451037  RH  028%=      5-min Rain = 0
KTIS 202045Z 22014G20KT 14/M04 A3006 RMK A01 T01401040  RH  029%=      5-min Rain = 0
KTIS 202050Z 22014KT 14/M04 A3006 RMK A01 T01401040  RH  029%=      5-min Rain = 0
KTIS 202055Z 23013KT 14/M04 A3006 RMK A01 T01431040  RH  028%=      5-min Rain = 0
KTIS 202100Z 22015KT 15/M04 A3005 RMK A01 T01451041  RH  028%=      5-min Rain = 0
KTIS 202105Z 24014G19KT 15/M05 A3005 RMK A01 T01461045  RH  026%=      5-min Rain = 0
KTIS 202110Z 24013G18KT 15/M04 A3005 RMK A01 T01511041  RH  026%=      5-min Rain = 0
KTIS 202115Z 23012G17KT 16/M04 A3005 RMK A01 T01561038  RH  026%=      5-min Rain = 0
KTIS 202120Z 22014KT 15/M04 A3005 RMK A01 T01531041  RH  026%=      5-min Rain = 0
KTIS 202125Z 23013G19KT 15/M04 A3004 RMK A01 T01501042  RH  027%=      5-min Rain = 0
KTIS 202130Z 24012G17KT 15/M04 A3004 RMK A01 T01531041  RH  026%=      5-min Rain = 0
KTIS 202135Z 24013KT 16/M04 A3004 RMK A01 T01561042  RH  025%=      5-min Rain = 0
KTIS 202140Z 23011KT 16/M04 A3004 RMK A01 T01581039  RH  026%=      5-min Rain = 0
KTIS 202145Z 23013KT 16/M04 A3004 RMK A01 T01581040  RH  025%=      5-min Rain = 0
KTIS 202150Z 24011KT 16/M04 A3004 RMK A01 T01571039  RH  026%=      5-min Rain = 0
KTIS 202155Z 24011G17KT 16/M04 A3004 RMK A01 T01621037  RH  025%=      5-min Rain = 0
KTIS 202200Z 23012KT 16/M04 A3004 RMK A01 T01611039  RH  025%=      5-min Rain = 0
KTIS 202205Z 24010KT 16/M04 A3004 RMK A01 T01601039  RH  025%=      5-min Rain = 0
KTIS 202210Z 25012KT 16/M04 A3004 RMK A01 T01621039  RH  025%=      5-min Rain = 0
KTIS 202215Z 24012KT 16/M04 A3004 RMK A01 T01611038  RH  025%=      5-min Rain = 0
KTIS 202220Z 23012KT 16/M04 A3004 RMK A01 T01601038  RH  025%=      5-min Rain = 0
KTIS 202225Z 23012KT 16/M04 A3004 RMK A01 T01611037  RH  026%=      5-min Rain = 0
KTIS 202230Z 24013KT 16/M04 A3004 RMK A01 T01621037  RH  025%=      5-min Rain = 0
KTIS 202235Z 23012KT 17/M04 A3004 RMK A01 T01651036  RH  025%=      5-min Rain = 0
KTIS 202240Z 22011KT 16/M04 A3003 RMK A01 T01631038  RH  025%=      5-min Rain = 0
KTIS 202245Z 24011G16KT 17/M04 A3003 RMK A01 T01651038  RH  025%=      5-min Rain = 0
KTIS 202250Z 24013KT 16/M04 A3003 RMK A01 T01631042  RH  024%=      5-min Rain = 0
KTIS 202255Z 24011G16KT 16/M04 A3003 RMK A01 T01611041  RH  025%=      5-min Rain = 0
KTIS 202300Z 23011KT 16/M04 A3003 RMK A01 T01611039  RH  025%=      5-min Rain = 0
KTIS 202305Z 24011KT 16/M04 A3003 RMK A01 T01591039  RH  025%=      5-min Rain = 0
KTIS 202310Z 25008KT 16/M04 A3003 RMK A01 T01581037  RH  026%=      5-min Rain = 0
KTIS 202315Z 25006KT 16/M04 A3003 RMK A01 T01571036  RH  027%=      5-min Rain = 0
KTIS 202320Z 24007KT 16/M04 A3002 RMK A01 T01551036  RH  027%=      5-min Rain = 0
KTIS 202325Z 24007KT 15/M04 A3002 RMK A01 T01501035  RH  028%=      5-min Rain = 0
KTIS 202330Z 24006KT 15/M04 A3002 RMK A01 T01461035  RH  029%=      5-min Rain = 0
KTIS 202335Z 24005KT 14/M03 A3002 RMK A01 T01421034  RH  029%=      5-min Rain = 0
KTIS 202340Z 24005KT 14/M03 A3002 RMK A01 T01391034  RH  030%=      5-min Rain = 0
KTIS 202345Z 25004KT 14/M03 A3002 RMK A01 T01361033  RH  031%=      5-min Rain = 0
KTIS 202350Z 25003KT 13/M03 A3002 RMK A01 T01341033  RH  031%=      5-min Rain = 0
KTIS 202355Z 24003KT 13/M03 A3002 RMK A01 T01311034  RH  032%=      5-min Rain = 0
KTIS 210000Z 24002KT 13/M03 A3002 RMK A01 T01261033  RH  033%=      5-min Rain = 0
KTIS 210005Z 24002KT 12/M03 A3002 RMK A01 T01241033  RH  033%=      5-min Rain = 0
KTIS 210010Z 24002KT 12/M03 A3002 RMK A01 T01221034  RH  034%=      5-min Rain = 0
KTIS 210015Z 24001KT 12/M03 A3002 RMK A01 T01191034  RH  035%=      5-min Rain = 0
KTIS 210020Z 24001KT 11/M03 A3002 RMK A01 T01141031  RH  036%=      5-min Rain = 0
KTIS 210025Z 24001KT 11/M03 A3002 RMK A01 T01091030  RH  038%=      5-min Rain = 0
KTIS 210030Z 18004KT 11/M03 A3002 RMK A01 T01101033  RH  037%=      5-min Rain = 0
KTIS 210035Z 17006KT 09/M04 A3002 RMK A01 T00941035  RH  040%=      5-min Rain = 0
KTIS 210040Z 16006KT 08/M04 A3002 RMK A01 T00821037  RH  043%=      5-min Rain = 0
KTIS 210045Z 16005KT 08/M04 A3002 RMK A01 T00771037  RH  044%=      5-min Rain = 0
KTIS 210050Z 17005KT 08/M04 A3002 RMK A01 T00781038  RH  044%=      5-min Rain = 0
KTIS 210055Z 17006KT 08/M04 A3002 RMK A01 T00761035  RH  046%=      5-min Rain = 0
KTIS 210100Z 17008KT 08/M04 A3002 RMK A01 T00811037  RH  043%=      5-min Rain = 0
KTIS 210105Z 17008KT 09/M04 A3002 RMK A01 T00891041  RH  040%=      5-min Rain = 0
KTIS 210110Z 17008KT 09/M04 A3002 RMK A01 T00871042  RH  040%=      5-min Rain = 0
KTIS 210115Z 17008KT 09/M05 A3002 RMK A01 T00901045  RH  038%=      5-min Rain = 0
KTIS 210120Z 17009KT 09/M05 A3002 RMK A01 T00941047  RH  037%=      5-min Rain = 0
KTIS 210125Z 18009KT 09/M05 A3002 RMK A01 T00931048  RH  037%=      5-min Rain = 0
KTIS 210130Z 18010KT 09/M05 A3002 RMK A01 T00871050  RH  038%=      5-min Rain = 0
KTIS 210135Z 18010KT 08/M05 A3001 RMK A01 T00801052  RH  039%=      5-min Rain = 0
KTIS 210140Z 18010KT 08/M05 A3001 RMK A01 T00761053  RH  040%=      5-min Rain = 0
KTIS 210145Z 18010KT 08/M05 A3001 RMK A01 T00751053  RH  040%=      5-min Rain = 0
KTIS 210150Z 18009KT 07/M05 A3001 RMK A01 T00721054  RH  040%=      5-min Rain = 0
KTIS 210155Z 18009KT 07/M05 A3001 RMK A01 T00691054  RH  041%=      5-min Rain = 0
KTIS 210200Z 18009KT 07/M06 A3001 RMK A01 T00681055  RH  041%=      5-min Rain = 0
KTIS 210205Z 17010KT 07/M06 A30 RMK A01 T00701055  RH  041%=      5-min Rain = 0
KTIS 210210Z 17009KT 07/M06 A30 RMK A01 T00741055  RH  039%=      5-min Rain = 0
KTIS 210215Z 17009KT 07/M06 A30 RMK A01 T00701055  RH  040%=      5-min Rain = 0
KTIS 210220Z 18009KT 07/M06 A30 RMK A01 T00681056  RH  041%=      5-min Rain = 0
KTIS 210225Z 18009KT 06/M06 A30 RMK A01 T00631057  RH  042%=      5-min Rain = 0
KTIS 210230Z 18008KT 06/M06 A30 RMK A01 T00581058  RH  043%=      5-min Rain = 0
KTIS 210235Z 18008KT 05/M06 A30 RMK A01 T00541058  RH  044%=      5-min Rain = 0
KTIS 210240Z 18009KT 05/M06 A30 RMK A01 T00531059  RH  044%=      5-min Rain = 0
KTIS 210245Z 19010KT 06/M06 A30 RMK A01 T00551059  RH  044%=      5-min Rain = 0
KTIS 210250Z 19010KT 06/M06 A30 RMK A01 T00551059  RH  043%=      5-min Rain = 0
KTIS 210255Z 19009KT 05/M06 A30 RMK A01 T00511060  RH  045%=      5-min Rain = 0
KTIS 210300Z 19011KT 05/M06 A2999 RMK A01 T00501061  RH  045%=      5-min Rain = 0
KTIS 210305Z 20011KT 06/M06 A2999 RMK A01 T00561061  RH  043%=      5-min Rain = 0
KTIS 210310Z 20011KT 06/M06 A2999 RMK A01 T00581061  RH  042%=      5-min Rain = 0
KTIS 210315Z 19011KT 06/M06 A2999 RMK A01 T00601061  RH  042%=      5-min Rain = 0
KTIS 210320Z 19011KT 06/M06 A2999 RMK A01 T00631062  RH  041%=      5-min Rain = 0
KTIS 210325Z 19012KT 07/M06 A2998 RMK A01 T00661062  RH  040%=      5-min Rain = 0
KTIS 210330Z 19011KT 07/M06 A2998 RMK A01 T00651062  RH  040%=      5-min Rain = 0
KTIS 210335Z 19011KT 06/M06 A2998 RMK A01 T00621062  RH  041%=      5-min Rain = 0
KTIS 210340Z 19011KT 06/M06 A2998 RMK A01 T00591062  RH  042%=      5-min Rain = 0
KTIS 210345Z 19011KT 06/M06 A2998 RMK A01 T00591062  RH  042%=      5-min Rain = 0
KTIS 210350Z 19011KT 06/M06 A2997 RMK A01 T00621063  RH  040%=      5-min Rain = 0
KTIS 210355Z 20011KT 06/M06 A2998 RMK A01 T00621063  RH  040%=      5-min Rain = 0
KTIS 210400Z 20011KT 06/M06 A2998 RMK A01 T00621063  RH  040%=      5-min Rain = 0
KTIS 210405Z 20011KT 06/M06 A2998 RMK A01 T00631063  RH  040%=      5-min Rain = 0
KTIS 210410Z 20011KT 06/M06 A2997 RMK A01 T00641063  RH  040%=      5-min Rain = 0
KTIS 210415Z 20012KT 06/M06 A2997 RMK A01 T00631063  RH  040%=      5-min Rain = 0
KTIS 210420Z 21012KT 06/M06 A2997 RMK A01 T00631063  RH  040%=      5-min Rain = 0
KTIS 210425Z 21012KT 06/M06 A2997 RMK A01 T00631064  RH  040%=      5-min Rain = 0
KTIS 210430Z 21012KT 06/M06 A2997 RMK A01 T00621064  RH  040%=      5-min Rain = 0
KTIS 210435Z 21012KT 06/M06 A2997 RMK A01 T00621064  RH  040%=      5-min Rain = 0
KTIS 210440Z 21012KT 07/M06 A2997 RMK A01 T00651063  RH  039%=      5-min Rain = 0
KTIS 210445Z 21012KT 07/M06 A2997 RMK A01 T00651063  RH  040%=      5-min Rain = 0
KTIS 210450Z 21013KT 07/M06 A2997 RMK A01 T00651063  RH  040%=      5-min Rain = 0
KTIS 210455Z 22012KT 07/M06 A2997 RMK A01 T00661063  RH  039%=      5-min Rain = 0
KTIS 210500Z 22012G17KT 07/M06 A2997 RMK A01 T00651063  RH  040%=      5-min Rain = 0
KTIS 210505Z 21012KT 06/M06 A2997 RMK A01 T00631063  RH  040%=      5-min Rain = 0
KTIS 210510Z 22011KT 06/M06 A2997 RMK A01 T00601063  RH  041%=      5-min Rain = 0
KTIS 210515Z 22011KT 06/M06 A2997 RMK A01 T00601062  RH  041%=      5-min Rain = 0
KTIS 210520Z 22011KT 06/M06 A2997 RMK A01 T00601062  RH  041%=      5-min Rain = 0
KTIS 210525Z 22012KT 06/M06 A2997 RMK A01 T00581062  RH  042%=      5-min Rain = 0
KTIS 210530Z 21011KT 06/M06 A2997 RMK A01 T00551062  RH  043%=      5-min Rain = 0
KTIS 210535Z 21012KT 05/M06 A2997 RMK A01 T00491062  RH  044%=      5-min Rain = 0
KTIS 210540Z 21012KT 05/M06 A2997 RMK A01 T00471062  RH  045%=      5-min Rain = 0
KTIS 210545Z 21012KT 05/M06 A2997 RMK A01 T00461062  RH  045%=      5-min Rain = 0
KTIS 210550Z 21011KT 05/M06 A2997 RMK A01 T00451062  RH  046%=      5-min Rain = 0
KTIS 210555Z 21012KT 04/M06 A2997 RMK A01 T00421062  RH  047%=      5-min Rain = 0

Page generated in 0.0231 seconds.